sensor_id;sensor_type;location;lat;lon;timestamp;pressure;altitude;pressure_sealevel;temperature;humidity
49529;BME280;35423;37.320;-121.762;2023-05-09T00:01:09;100080.17;;;31.71;16.07
49529;BME280;35423;37.320;-121.762;2023-05-09T00:03:29;100079.46;;;31.59;16.28
49529;BME280;35423;37.320;-121.762;2023-05-09T00:05:54;100082.44;;;31.52;16.31
49529;BME280;35423;37.320;-121.762;2023-05-09T00:08:20;100086.07;;;31.39;16.36
49529;BME280;35423;37.320;-121.762;2023-05-09T00:11:03;100086.90;;;31.31;16.42
49529;BME280;35423;37.320;-121.762;2023-05-09T00:13:29;100085.01;;;31.50;16.26
49529;BME280;35423;37.320;-121.762;2023-05-09T00:15:55;100079.59;;;31.33;16.23
49529;BME280;35423;37.320;-121.762;2023-05-09T00:18:22;100083.58;;;31.01;16.52
49529;BME280;35423;37.320;-121.762;2023-05-09T00:20:49;100087.04;;;31.23;16.48
49529;BME280;35423;37.320;-121.762;2023-05-09T00:23:14;100086.93;;;30.98;16.46
49529;BME280;35423;37.320;-121.762;2023-05-09T00:25:45;100087.02;;;31.27;16.44
49529;BME280;35423;37.320;-121.762;2023-05-09T00:28:12;100087.43;;;30.71;16.34
49529;BME280;35423;37.320;-121.762;2023-05-09T00:30:37;100085.10;;;30.86;16.30
49529;BME280;35423;37.320;-121.762;2023-05-09T00:33:03;100079.48;;;31.02;16.29
49529;BME280;35423;37.320;-121.762;2023-05-09T00:35:30;100078.97;;;30.89;16.39
49529;BME280;35423;37.320;-121.762;2023-05-09T00:37:55;100080.25;;;30.56;16.37
49529;BME280;35423;37.320;-121.762;2023-05-09T00:40:20;100091.61;;;30.47;16.32
49529;BME280;35423;37.320;-121.762;2023-05-09T00:42:51;100090.45;;;30.84;16.41
49529;BME280;35423;37.320;-121.762;2023-05-09T00:45:18;100092.08;;;30.58;16.48
49529;BME280;35423;37.320;-121.762;2023-05-09T00:47:59;100090.11;;;30.73;16.38
49529;BME280;35423;37.320;-121.762;2023-05-09T00:50:24;100092.15;;;30.41;16.36
49529;BME280;35423;37.320;-121.762;2023-05-09T00:52:54;100097.96;;;30.56;16.41
49529;BME280;35423;37.320;-121.762;2023-05-09T00:55:20;100103.05;;;30.38;16.48
49529;BME280;35423;37.320;-121.762;2023-05-09T00:57:49;100100.69;;;30.15;16.63
49529;BME280;35423;37.320;-121.762;2023-05-09T01:00:13;100100.32;;;30.02;16.69
49529;BME280;35423;37.320;-121.762;2023-05-09T01:02:40;100100.10;;;29.96;16.70
49529;BME280;35423;37.320;-121.762;2023-05-09T01:05:05;100099.55;;;29.93;16.75
49529;BME280;35423;37.320;-121.762;2023-05-09T01:07:37;100101.15;;;30.07;16.84
49529;BME280;35423;37.320;-121.762;2023-05-09T01:10:05;100098.50;;;29.75;16.82
49529;BME280;35423;37.320;-121.762;2023-05-09T01:12:33;100098.76;;;29.66;16.80
49529;BME280;35423;37.320;-121.762;2023-05-09T01:14:58;100102.68;;;29.58;16.79
49529;BME280;35423;37.320;-121.762;2023-05-09T01:17:23;100111.28;;;29.49;16.93
49529;BME280;35423;37.320;-121.762;2023-05-09T01:19:55;100106.60;;;29.36;16.86
49529;BME280;35423;37.320;-121.762;2023-05-09T01:22:25;100106.79;;;29.73;16.92
49529;BME280;35423;37.320;-121.762;2023-05-09T01:27:38;100106.44;;;29.50;17.09
49529;BME280;35423;37.320;-121.762;2023-05-09T01:29:56;100110.04;;;29.13;17.07
49529;BME280;35423;37.320;-121.762;2023-05-09T01:32:24;100101.74;;;29.36;17.05
49529;BME280;35423;37.320;-121.762;2023-05-09T01:34:51;100102.36;;;29.26;16.98
49529;BME280;35423;37.320;-121.762;2023-05-09T01:37:14;100099.48;;;29.11;17.03
49529;BME280;35423;37.320;-121.762;2023-05-09T01:39:39;100103.71;;;28.98;17.06
49529;BME280;35423;37.320;-121.762;2023-05-09T01:42:08;100106.60;;;28.81;17.09
49529;BME280;35423;37.320;-121.762;2023-05-09T01:44:36;100114.67;;;28.69;17.19
49529;BME280;35423;37.320;-121.762;2023-05-09T01:47:01;100115.83;;;28.58;17.28
49529;BME280;35423;37.320;-121.762;2023-05-09T01:49:29;100112.42;;;28.38;17.31
49529;BME280;35423;37.320;-121.762;2023-05-09T01:52:10;100115.47;;;28.46;17.34
49529;BME280;35423;37.320;-121.762;2023-05-09T01:54:33;100114.17;;;28.09;17.44
49529;BME280;35423;37.320;-121.762;2023-05-09T01:56:59;100119.00;;;28.24;17.43
49529;BME280;35423;37.320;-121.762;2023-05-09T01:59:28;100121.45;;;27.86;17.51
49529;BME280;35423;37.320;-121.762;2023-05-09T02:01:52;100119.97;;;28.25;17.57
49529;BME280;35423;37.320;-121.762;2023-05-09T02:04:18;100120.91;;;27.86;17.53
49529;BME280;35423;37.320;-121.762;2023-05-09T02:06:48;100122.50;;;27.49;17.62
49529;BME280;35423;37.320;-121.762;2023-05-09T02:09:14;100122.45;;;27.60;17.55
49529;BME280;35423;37.320;-121.762;2023-05-09T02:11:43;100118.94;;;27.46;17.49
49529;BME280;35423;37.320;-121.762;2023-05-09T02:14:09;100121.33;;;27.59;17.51
49529;BME280;35423;37.320;-121.762;2023-05-09T02:16:46;100123.74;;;27.17;17.57
49529;BME280;35423;37.320;-121.762;2023-05-09T02:19:11;100127.82;;;27.05;17.63
49529;BME280;35423;37.320;-121.762;2023-05-09T02:21:37;100130.32;;;27.22;17.57
49529;BME280;35423;37.320;-121.762;2023-05-09T02:24:04;100132.29;;;27.08;17.65
49529;BME280;35423;37.320;-121.762;2023-05-09T02:26:29;100131.42;;;27.14;17.69
49529;BME280;35423;37.320;-121.762;2023-05-09T02:28:54;100136.85;;;27.04;17.77
49529;BME280;35423;37.320;-121.762;2023-05-09T02:31:29;100136.59;;;27.11;17.81
49529;BME280;35423;37.320;-121.762;2023-05-09T02:33:54;100139.47;;;26.56;17.81
49529;BME280;35423;37.320;-121.762;2023-05-09T02:36:22;100141.75;;;26.42;17.73
49529;BME280;35423;37.320;-121.762;2023-05-09T02:38:52;100145.78;;;26.32;17.88
49529;BME280;35423;37.320;-121.762;2023-05-09T02:41:19;100149.26;;;26.66;18.00
49529;BME280;35423;37.320;-121.762;2023-05-09T02:43:46;100153.74;;;26.57;17.98
49529;BME280;35423;37.320;-121.762;2023-05-09T02:46:11;100159.15;;;26.16;18.08
49529;BME280;35423;37.320;-121.762;2023-05-09T02:48:37;100162.88;;;26.30;18.12
49529;BME280;35423;37.320;-121.762;2023-05-09T02:51:02;100163.83;;;26.45;18.16
49529;BME280;35423;37.320;-121.762;2023-05-09T02:53:29;100166.71;;;26.06;18.21
49529;BME280;35423;37.320;-121.762;2023-05-09T02:55:58;100166.53;;;25.89;18.33
49529;BME280;35423;37.320;-121.762;2023-05-09T02:58:25;100168.94;;;25.81;18.43
49529;BME280;35423;37.320;-121.762;2023-05-09T03:00:52;100173.52;;;25.77;18.41
49529;BME280;35423;37.320;-121.762;2023-05-09T03:03:18;100173.29;;;25.90;18.34
49529;BME280;35423;37.320;-121.762;2023-05-09T03:05:43;100176.20;;;25.50;18.38
49529;BME280;35423;37.320;-121.762;2023-05-09T03:08:11;100180.03;;;25.42;18.39
49529;BME280;35423;37.320;-121.762;2023-05-09T03:10:40;100184.63;;;25.27;18.57
49529;BME280;35423;37.320;-121.762;2023-05-09T03:13:08;100190.14;;;25.20;18.65
49529;BME280;35423;37.320;-121.762;2023-05-09T03:15:32;100194.15;;;25.31;18.80
49529;BME280;35423;37.320;-121.762;2023-05-09T03:17:58;100196.52;;;25.42;18.77
49529;BME280;35423;37.320;-121.762;2023-05-09T03:20:31;100195.87;;;25.11;18.82
49529;BME280;35423;37.320;-121.762;2023-05-09T03:22:59;100197.10;;;25.16;18.96
49529;BME280;35423;37.320;-121.762;2023-05-09T03:25:27;100198.54;;;25.02;19.08
49529;BME280;35423;37.320;-121.762;2023-05-09T03:27:51;100200.65;;;24.98;19.14
49529;BME280;35423;37.320;-121.762;2023-05-09T03:30:16;100202.77;;;24.70;19.24
49529;BME280;35423;37.320;-121.762;2023-05-09T03:32:41;100198.96;;;24.65;19.30
49529;BME280;35423;37.320;-121.762;2023-05-09T03:35:08;100197.18;;;24.85;19.25
49529;BME280;35423;37.320;-121.762;2023-05-09T03:37:34;100197.13;;;24.80;19.23
49529;BME280;35423;37.320;-121.762;2023-05-09T03:40:01;100199.39;;;24.78;19.36
49529;BME280;35423;37.320;-121.762;2023-05-09T03:42:30;100201.93;;;24.74;19.25
49529;BME280;35423;37.320;-121.762;2023-05-09T03:44:58;100200.20;;;24.68;19.26
49529;BME280;35423;37.320;-121.762;2023-05-09T03:47:23;100199.61;;;24.68;19.30
49529;BME280;35423;37.320;-121.762;2023-05-09T03:49:51;100202.71;;;24.47;19.40
49529;BME280;35423;37.320;-121.762;2023-05-09T03:52:19;100206.71;;;24.70;19.38
49529;BME280;35423;37.320;-121.762;2023-05-09T03:54:47;100207.49;;;24.67;19.47
49529;BME280;35423;37.320;-121.762;2023-05-09T03:57:12;100206.74;;;24.60;19.65
49529;BME280;35423;37.320;-121.762;2023-05-09T03:59:45;100206.14;;;24.57;19.74
49529;BME280;35423;37.320;-121.762;2023-05-09T04:02:16;100207.97;;;24.51;19.82
49529;BME280;35423;37.320;-121.762;2023-05-09T04:04:42;100207.54;;;24.46;19.90
49529;BME280;35423;37.320;-121.762;2023-05-09T04:07:07;100209.67;;;24.60;20.11
49529;BME280;35423;37.320;-121.762;2023-05-09T04:09:32;100211.82;;;24.26;20.23
49529;BME280;35423;37.320;-121.762;2023-05-09T04:12:02;100214.27;;;24.20;20.27
49529;BME280;35423;37.320;-121.762;2023-05-09T04:14:27;100215.14;;;24.01;20.47
49529;BME280;35423;37.320;-121.762;2023-05-09T04:16:54;100214.10;;;24.20;20.47
49529;BME280;35423;37.320;-121.762;2023-05-09T04:19:27;100215.63;;;24.09;20.57
49529;BME280;35423;37.320;-121.762;2023-05-09T04:21:58;100216.18;;;24.23;20.67
49529;BME280;35423;37.320;-121.762;2023-05-09T04:24:26;100215.45;;;23.91;20.83
49529;BME280;35423;37.320;-121.762;2023-05-09T04:26:52;100218.81;;;23.57;21.02
49529;BME280;35423;37.320;-121.762;2023-05-09T04:29:20;100215.78;;;23.52;21.02
49529;BME280;35423;37.320;-121.762;2023-05-09T04:31:44;100212.28;;;23.44;21.12
49529;BME280;35423;37.320;-121.762;2023-05-09T04:34:09;100212.94;;;23.86;21.11
49529;BME280;35423;37.320;-121.762;2023-05-09T04:36:35;100213.64;;;23.75;21.25
49529;BME280;35423;37.320;-121.762;2023-05-09T04:38:59;100217.13;;;23.64;21.36
49529;BME280;35423;37.320;-121.762;2023-05-09T04:41:34;100217.20;;;23.48;21.59
49529;BME280;35423;37.320;-121.762;2023-05-09T04:44:00;100216.92;;;23.41;21.73
49529;BME280;35423;37.320;-121.762;2023-05-09T04:46:33;100212.62;;;23.35;21.87
49529;BME280;35423;37.320;-121.762;2023-05-09T04:49:00;100214.64;;;23.29;21.96
49529;BME280;35423;37.320;-121.762;2023-05-09T04:51:38;100216.46;;;23.15;22.11
49529;BME280;35423;37.320;-121.762;2023-05-09T04:54:04;100222.84;;;23.04;22.28
49529;BME280;35423;37.320;-121.762;2023-05-09T04:56:31;100226.10;;;23.18;22.38
49529;BME280;35423;37.320;-121.762;2023-05-09T04:58:57;100227.25;;;23.12;22.52
49529;BME280;35423;37.320;-121.762;2023-05-09T05:01:23;100231.63;;;22.84;22.61
49529;BME280;35423;37.320;-121.762;2023-05-09T05:03:53;100235.60;;;23.02;22.65
49529;BME280;35423;37.320;-121.762;2023-05-09T05:06:18;100237.79;;;22.75;22.69
49529;BME280;35423;37.320;-121.762;2023-05-09T05:08:46;100239.12;;;22.71;22.72
49529;BME280;35423;37.320;-121.762;2023-05-09T05:11:12;100242.32;;;22.66;22.86
49529;BME280;35423;37.320;-121.762;2023-05-09T05:13:50;100240.97;;;22.81;22.89
49529;BME280;35423;37.320;-121.762;2023-05-09T05:16:28;100242.09;;;22.77;23.00
49529;BME280;35423;37.320;-121.762;2023-05-09T05:18:54;100243.58;;;22.49;23.05
49529;BME280;35423;37.320;-121.762;2023-05-09T05:21:19;100241.48;;;22.67;23.16
49529;BME280;35423;37.320;-121.762;2023-05-09T05:23:47;100242.55;;;22.60;23.31
49529;BME280;35423;37.320;-121.762;2023-05-09T05:26:21;100241.74;;;22.59;23.37
49529;BME280;35423;37.320;-121.762;2023-05-09T05:28:49;100240.00;;;22.50;23.43
49529;BME280;35423;37.320;-121.762;2023-05-09T05:31:24;100240.69;;;22.46;23.47
49529;BME280;35423;37.320;-121.762;2023-05-09T05:33:50;100241.01;;;22.70;23.55
49529;BME280;35423;37.320;-121.762;2023-05-09T05:36:21;100236.56;;;22.64;23.59
49529;BME280;35423;37.320;-121.762;2023-05-09T05:38:49;100234.28;;;22.56;23.70
49529;BME280;35423;37.320;-121.762;2023-05-09T05:41:21;100234.68;;;22.22;23.81
49529;BME280;35423;37.320;-121.762;2023-05-09T05:43:55;100235.04;;;22.38;23.96
49529;BME280;35423;37.320;-121.762;2023-05-09T05:46:20;100233.11;;;22.27;24.09
49529;BME280;35423;37.320;-121.762;2023-05-09T05:48:47;100233.98;;;22.13;24.27
49529;BME280;35423;37.320;-121.762;2023-05-09T05:51:14;100231.78;;;22.00;24.39
49529;BME280;35423;37.320;-121.762;2023-05-09T05:53:39;100230.88;;;22.36;24.57
49529;BME280;35423;37.320;-121.762;2023-05-09T05:56:06;100230.95;;;21.86;24.73
49529;BME280;35423;37.320;-121.762;2023-05-09T05:58:31;100226.41;;;22.08;24.68
49529;BME280;35423;37.320;-121.762;2023-05-09T06:01:01;100218.89;;;21.78;24.85
49529;BME280;35423;37.320;-121.762;2023-05-09T06:03:37;100214.84;;;21.72;24.94
49529;BME280;35423;37.320;-121.762;2023-05-09T06:06:11;100204.16;;;21.62;25.09
49529;BME280;35423;37.320;-121.762;2023-05-09T06:08:42;100202.29;;;21.55;25.17
49529;BME280;35423;37.320;-121.762;2023-05-09T06:11:07;100198.24;;;21.46;25.28
49529;BME280;35423;37.320;-121.762;2023-05-09T06:13:32;100196.20;;;21.64;25.38
49529;BME280;35423;37.320;-121.762;2023-05-09T06:15:58;100196.33;;;21.80;25.52
49529;BME280;35423;37.320;-121.762;2023-05-09T06:18:24;100188.76;;;21.33;25.57
49529;BME280;35423;37.320;-121.762;2023-05-09T06:20:52;100185.18;;;21.29;25.71
49529;BME280;35423;37.320;-121.762;2023-05-09T06:23:19;100188.97;;;21.71;25.72
49529;BME280;35423;37.320;-121.762;2023-05-09T06:25:52;100184.31;;;21.21;25.84
49529;BME280;35423;37.320;-121.762;2023-05-09T06:28:17;100185.83;;;21.17;25.90
49529;BME280;35423;37.320;-121.762;2023-05-09T06:30:43;100182.22;;;21.32;26.03
49529;BME280;35423;37.320;-121.762;2023-05-09T06:33:09;100178.98;;;21.48;26.13
49529;BME280;35423;37.320;-121.762;2023-05-09T06:35:35;100182.78;;;21.42;26.23
49529;BME280;35423;37.320;-121.762;2023-05-09T06:38:03;100184.69;;;21.38;26.29
49529;BME280;35423;37.320;-121.762;2023-05-09T06:40:29;100188.04;;;21.31;26.36
49529;BME280;35423;37.320;-121.762;2023-05-09T06:42:54;100182.16;;;21.26;26.41
49529;BME280;35423;37.320;-121.762;2023-05-09T06:45:19;100178.59;;;21.22;26.47
49529;BME280;35423;37.320;-121.762;2023-05-09T06:47:45;100177.68;;;20.96;26.54
49529;BME280;35423;37.320;-121.762;2023-05-09T06:50:11;100181.39;;;21.17;26.60
49529;BME280;35423;37.320;-121.762;2023-05-09T06:52:36;100181.14;;;21.15;26.67
49529;BME280;35423;37.320;-121.762;2023-05-09T06:55:05;100175.85;;;21.07;26.74
49529;BME280;35423;37.320;-121.762;2023-05-09T06:57:31;100175.32;;;21.02;26.77
49529;BME280;35423;37.320;-121.762;2023-05-09T07:00:08;100177.73;;;20.90;26.88
49529;BME280;35423;37.320;-121.762;2023-05-09T07:02:34;100179.24;;;20.85;26.93
49529;BME280;35423;37.320;-121.762;2023-05-09T07:05:14;100177.28;;;21.03;27.01
49529;BME280;35423;37.320;-121.762;2023-05-09T07:07:48;100181.40;;;20.68;27.17
49529;BME280;35423;37.320;-121.762;2023-05-09T07:10:15;100183.32;;;20.91;27.17
49529;BME280;35423;37.320;-121.762;2023-05-09T07:12:46;100186.66;;;20.57;27.30
49529;BME280;35423;37.320;-121.762;2023-05-09T07:15:19;100185.40;;;20.76;27.41
49529;BME280;35423;37.320;-121.762;2023-05-09T07:17:57;100186.20;;;20.68;27.52
49529;BME280;35423;37.320;-121.762;2023-05-09T07:20:28;100186.63;;;20.33;27.61
49529;BME280;35423;37.320;-121.762;2023-05-09T07:22:54;100183.42;;;20.26;27.64
49529;BME280;35423;37.320;-121.762;2023-05-09T07:25:19;100178.86;;;20.47;27.67
49529;BME280;35423;37.320;-121.762;2023-05-09T07:27:45;100177.32;;;20.63;27.62
49529;BME280;35423;37.320;-121.762;2023-05-09T07:30:16;100175.66;;;20.56;27.68
49529;BME280;35423;37.320;-121.762;2023-05-09T07:32:40;100170.98;;;20.30;27.68
49529;BME280;35423;37.320;-121.762;2023-05-09T07:35:08;100167.93;;;20.26;27.66
49529;BME280;35423;37.320;-121.762;2023-05-09T07:37:34;100175.25;;;20.19;27.69
49529;BME280;35423;37.320;-121.762;2023-05-09T07:40:00;100174.40;;;20.14;27.81
49529;BME280;35423;37.320;-121.762;2023-05-09T07:42:34;100173.89;;;20.35;27.86
49529;BME280;35423;37.320;-121.762;2023-05-09T07:45:00;100172.70;;;20.41;27.87
49529;BME280;35423;37.320;-121.762;2023-05-09T07:47:26;100169.76;;;20.50;27.83
49529;BME280;35423;37.320;-121.762;2023-05-09T07:49:56;100166.21;;;20.56;27.81
49529;BME280;35423;37.320;-121.762;2023-05-09T07:52:22;100166.76;;;20.61;27.71
49529;BME280;35423;37.320;-121.762;2023-05-09T07:54:47;100167.91;;;20.42;27.65
49529;BME280;35423;37.320;-121.762;2023-05-09T07:57:19;100168.54;;;20.65;27.64
49529;BME280;35423;37.320;-121.762;2023-05-09T07:59:45;100166.86;;;20.39;27.68
49529;BME280;35423;37.320;-121.762;2023-05-09T08:02:14;100165.78;;;20.55;27.67
49529;BME280;35423;37.320;-121.762;2023-05-09T08:04:44;100161.25;;;20.28;27.69
49529;BME280;35423;37.320;-121.762;2023-05-09T08:07:13;100160.85;;;20.22;27.76
49529;BME280;35423;37.320;-121.762;2023-05-09T08:09:39;100156.12;;;20.36;27.87
49529;BME280;35423;37.320;-121.762;2023-05-09T08:12:08;100155.45;;;20.30;27.96
49529;BME280;35423;37.320;-121.762;2023-05-09T08:14:38;100153.68;;;20.01;28.01
49529;BME280;35423;37.320;-121.762;2023-05-09T08:16:59;100153.46;;;20.15;28.09
49529;BME280;35423;37.320;-121.762;2023-05-09T08:19:27;100155.40;;;20.11;28.14
49529;BME280;35423;37.320;-121.762;2023-05-09T08:21:57;100155.58;;;20.04;28.23
49529;BME280;35423;37.320;-121.762;2023-05-09T08:24:22;100154.12;;;19.99;28.33
49529;BME280;35423;37.320;-121.762;2023-05-09T08:26:52;100150.41;;;19.94;28.33
49529;BME280;35423;37.320;-121.762;2023-05-09T08:29:13;100152.87;;;19.89;28.38
49529;BME280;35423;37.320;-121.762;2023-05-09T08:31:38;100153.78;;;19.61;28.45
49529;BME280;35423;37.320;-121.762;2023-05-09T08:34:04;100153.99;;;19.80;28.41
49529;BME280;35423;37.320;-121.762;2023-05-09T08:36:29;100153.84;;;19.73;28.39
49529;BME280;35423;37.320;-121.762;2023-05-09T08:38:58;100154.91;;;19.72;28.38
49529;BME280;35423;37.320;-121.762;2023-05-09T08:41:25;100154.96;;;19.71;28.32
49529;BME280;35423;37.320;-121.762;2023-05-09T08:43:53;100150.73;;;19.65;28.33
49529;BME280;35423;37.320;-121.762;2023-05-09T08:46:23;100151.23;;;19.63;28.30
49529;BME280;35423;37.320;-121.762;2023-05-09T08:48:45;100150.60;;;19.63;28.30
49529;BME280;35423;37.320;-121.762;2023-05-09T08:51:10;100147.56;;;19.64;28.30
49529;BME280;35423;37.320;-121.762;2023-05-09T08:53:37;100145.75;;;19.66;28.27
49529;BME280;35423;37.320;-121.762;2023-05-09T08:56:08;100142.64;;;20.20;28.31
49529;BME280;35423;37.320;-121.762;2023-05-09T08:58:34;100139.80;;;19.75;28.32
49529;BME280;35423;37.320;-121.762;2023-05-09T09:00:59;100136.91;;;19.79;28.32
49529;BME280;35423;37.320;-121.762;2023-05-09T09:03:25;100136.95;;;19.84;28.26
49529;BME280;35423;37.320;-121.762;2023-05-09T09:05:51;100136.97;;;19.87;28.30
49529;BME280;35423;37.320;-121.762;2023-05-09T09:08:21;100134.23;;;19.93;28.19
49529;BME280;35423;37.320;-121.762;2023-05-09T09:10:45;100131.29;;;20.44;28.18
49529;BME280;35423;37.320;-121.762;2023-05-09T09:13:12;100127.22;;;20.17;28.19
49529;BME280;35423;37.320;-121.762;2023-05-09T09:15:36;100126.54;;;19.88;28.29
49529;BME280;35423;37.320;-121.762;2023-05-09T09:18:06;100125.73;;;19.87;28.29
49529;BME280;35423;37.320;-121.762;2023-05-09T09:20:31;100127.39;;;19.85;28.32
49529;BME280;35423;37.320;-121.762;2023-05-09T09:22:58;100122.38;;;20.14;28.33
49529;BME280;35423;37.320;-121.762;2023-05-09T09:25:20;100114.24;;;19.86;28.39
49529;BME280;35423;37.320;-121.762;2023-05-09T09:27:46;100109.63;;;19.80;28.39
49529;BME280;35423;37.320;-121.762;2023-05-09T09:30:13;100106.08;;;19.72;28.41
49529;BME280;35423;37.320;-121.762;2023-05-09T09:32:38;100105.40;;;19.66;28.43
49529;BME280;35423;37.320;-121.762;2023-05-09T09:35:07;100105.40;;;19.59;28.49
49529;BME280;35423;37.320;-121.762;2023-05-09T09:37:33;100104.22;;;19.46;28.62
49529;BME280;35423;37.320;-121.762;2023-05-09T09:39:57;100104.72;;;19.30;28.82
49529;BME280;35423;37.320;-121.762;2023-05-09T09:42:23;100103.97;;;19.65;29.03
49529;BME280;35423;37.320;-121.762;2023-05-09T09:44:56;100100.45;;;18.99;29.24
49529;BME280;35423;37.320;-121.762;2023-05-09T09:47:30;100102.30;;;19.30;29.42
49529;BME280;35423;37.320;-121.762;2023-05-09T09:49:49;100100.87;;;19.19;29.52
49529;BME280;35423;37.320;-121.762;2023-05-09T09:52:22;100102.25;;;18.86;29.63
49529;BME280;35423;37.320;-121.762;2023-05-09T09:54:40;100105.94;;;19.02;29.70
49529;BME280;35423;37.320;-121.762;2023-05-09T09:57:07;100102.49;;;18.73;29.78
49529;BME280;35423;37.320;-121.762;2023-05-09T09:59:33;100106.19;;;18.93;29.77
49529;BME280;35423;37.320;-121.762;2023-05-09T10:02:02;100106.52;;;18.90;29.77
49529;BME280;35423;37.320;-121.762;2023-05-09T10:04:29;100106.21;;;18.86;29.71
49529;BME280;35423;37.320;-121.762;2023-05-09T10:06:57;100103.17;;;18.76;29.82
49529;BME280;35423;37.320;-121.762;2023-05-09T10:09:22;100104.24;;;18.70;29.87
49529;BME280;35423;37.320;-121.762;2023-05-09T10:11:49;100103.37;;;18.70;29.89
49529;BME280;35423;37.320;-121.762;2023-05-09T10:14:22;100102.14;;;18.69;29.90
49529;BME280;35423;37.320;-121.762;2023-05-09T10:16:48;100105.01;;;18.63;29.90
49529;BME280;35423;37.320;-121.762;2023-05-09T10:19:12;100107.72;;;18.75;30.01
49529;BME280;35423;37.320;-121.762;2023-05-09T10:21:39;100108.50;;;18.71;30.01
49529;BME280;35423;37.320;-121.762;2023-05-09T10:24:07;100106.82;;;18.44;30.01
49529;BME280;35423;37.320;-121.762;2023-05-09T10:26:32;100106.45;;;18.38;30.05
49529;BME280;35423;37.320;-121.762;2023-05-09T10:28:56;100103.88;;;18.39;29.99
49529;BME280;35423;37.320;-121.762;2023-05-09T10:31:24;100106.00;;;18.34;29.94
49529;BME280;35423;37.320;-121.762;2023-05-09T10:33:49;100107.34;;;18.29;29.99
49529;BME280;35423;37.320;-121.762;2023-05-09T10:36:17;100110.54;;;18.29;30.03
49529;BME280;35423;37.320;-121.762;2023-05-09T10:38:42;100109.97;;;18.33;30.00
49529;BME280;35423;37.320;-121.762;2023-05-09T10:41:11;100113.79;;;18.59;29.95
49529;BME280;35423;37.320;-121.762;2023-05-09T10:43:40;100117.20;;;18.39;29.96
49529;BME280;35423;37.320;-121.762;2023-05-09T10:46:06;100110.82;;;18.68;29.88
49529;BME280;35423;37.320;-121.762;2023-05-09T10:48:32;100107.77;;;18.53;29.78
49529;BME280;35423;37.320;-121.762;2023-05-09T10:51:05;100102.84;;;18.74;29.84
49529;BME280;35423;37.320;-121.762;2023-05-09T10:55:57;100099.71;;;18.46;29.97
49529;BME280;35423;37.320;-121.762;2023-05-09T10:58:25;100096.81;;;18.68;30.07
49529;BME280;35423;37.320;-121.762;2023-05-09T11:00:52;100100.01;;;18.69;30.13
49529;BME280;35423;37.320;-121.762;2023-05-09T11:03:16;100100.46;;;18.54;30.13
49529;BME280;35423;37.320;-121.762;2023-05-09T11:05:44;100097.41;;;18.64;30.07
49529;BME280;35423;37.320;-121.762;2023-05-09T11:08:18;100098.79;;;18.94;30.02
49529;BME280;35423;37.320;-121.762;2023-05-09T11:10:41;100103.33;;;18.99;30.01
49529;BME280;35423;37.320;-121.762;2023-05-09T11:13:04;100102.32;;;19.02;30.01
49529;BME280;35423;37.320;-121.762;2023-05-09T11:15:33;100100.60;;;19.01;30.03
49529;BME280;35423;37.320;-121.762;2023-05-09T11:18:06;100096.09;;;18.78;30.04
49529;BME280;35423;37.320;-121.762;2023-05-09T11:20:35;100097.41;;;18.73;30.11
49529;BME280;35423;37.320;-121.762;2023-05-09T11:23:04;100095.90;;;18.91;30.20
49529;BME280;35423;37.320;-121.762;2023-05-09T11:25:38;100093.77;;;18.90;30.27
49529;BME280;35423;37.320;-121.762;2023-05-09T11:28:02;100093.40;;;18.63;30.35
49529;BME280;35423;37.320;-121.762;2023-05-09T11:30:37;100097.05;;;18.81;30.37
49529;BME280;35423;37.320;-121.762;2023-05-09T11:32:54;100098.47;;;18.75;30.44
49529;BME280;35423;37.320;-121.762;2023-05-09T11:35:21;100102.44;;;18.50;30.51
49529;BME280;35423;37.320;-121.762;2023-05-09T11:37:48;100102.34;;;18.43;30.56
49529;BME280;35423;37.320;-121.762;2023-05-09T11:40:21;100108.03;;;18.85;30.75
49529;BME280;35423;37.320;-121.762;2023-05-09T11:42:46;100104.54;;;18.30;30.79
49529;BME280;35423;37.320;-121.762;2023-05-09T11:45:11;100102.87;;;18.22;30.85
49529;BME280;35423;37.320;-121.762;2023-05-09T11:47:39;100100.31;;;18.67;30.91
49529;BME280;35423;37.320;-121.762;2023-05-09T11:50:08;100104.38;;;18.32;30.98
49529;BME280;35423;37.320;-121.762;2023-05-09T11:52:39;100103.93;;;18.05;31.03
49529;BME280;35423;37.320;-121.762;2023-05-09T11:55:07;100101.22;;;18.21;31.11
49529;BME280;35423;37.320;-121.762;2023-05-09T11:57:31;100102.38;;;18.18;31.14
49529;BME280;35423;37.320;-121.762;2023-05-09T11:59:58;100100.68;;;18.42;31.19
49529;BME280;35423;37.320;-121.762;2023-05-09T12:02:23;100099.99;;;18.13;31.22
49529;BME280;35423;37.320;-121.762;2023-05-09T12:04:51;100099.70;;;18.35;31.25
49529;BME280;35423;37.320;-121.762;2023-05-09T12:07:17;100098.15;;;18.32;31.31
49529;BME280;35423;37.320;-121.762;2023-05-09T12:09:42;100096.81;;;17.85;31.26
49529;BME280;35423;37.320;-121.762;2023-05-09T12:12:16;100096.11;;;18.38;31.22
49529;BME280;35423;37.320;-121.762;2023-05-09T12:14:42;100095.54;;;18.12;31.21
49529;BME280;35423;37.320;-121.762;2023-05-09T12:17:07;100090.70;;;18.41;31.16
49529;BME280;35423;37.320;-121.762;2023-05-09T12:19:33;100086.16;;;18.15;31.14
49529;BME280;35423;37.320;-121.762;2023-05-09T12:22:00;100084.10;;;18.41;31.09
49529;BME280;35423;37.320;-121.762;2023-05-09T12:24:30;100084.65;;;18.38;31.09
49529;BME280;35423;37.320;-121.762;2023-05-09T12:26:57;100083.50;;;18.08;31.18